This is the latest recevied weather packets stored in our database for station/object YG1BKV-13. If no packets are shown the sender has not sent any weather packets the latest 10 day(s).
| Time | Temp. | Humidity | Pressure | Rain* | Wind** | Luminosity | Snow |
|---|---|---|---|---|---|---|---|
| 1787714190 | 27.22° C | 41% | 1104.5 hPa | - | - | - | - |
| 1787713590 | 27.22° C | 41% | 1104.6 hPa | - | - | - | - |
| 1787712990 | 27.22° C | 41% | 1104.7 hPa | - | - | - | - |
| 1787712390 | 27.22° C | 41% | 1104.7 hPa | - | - | - | - |
| 1787711790 | 27.22° C | 41% | 1104.7 hPa | - | - | - | - |
| 1787711190 | 27.22° C | 41% | 1104.7 hPa | - | - | - | - |
| 1787710590 | 27.22° C | 41% | 1104.8 hPa | - | - | - | - |
| 1787709990 | 27.22° C | 42% | 1104.9 hPa | - | - | - | - |
| 1787709390 | 27.22° C | 42% | 1105 hPa | - | - | - | - |
| 1787708790 | 27.22° C | 42% | 1104.9 hPa | - | - | - | - |
| 1787708190 | 27.22° C | 42% | 1104.9 hPa | - | - | - | - |
| 1787707590 | 27.22° C | 42% | 1020.4 hPa | - | - | - | - |
| 1787706990 | 27.78° C | 41% | 1020.4 hPa | - | - | - | - |
| 1787706390 | 28.33° C | 39% | 1020.4 hPa | - | - | - | - |
| 1787706329 | 28.33° C | 39% | 1020.3 hPa | - | - | - | - |
| 1787706169 | 28.33° C | 40% | 1020.3 hPa | - | - | - | - |
| 1787705838 | 27.78° C | 41% | 1020.3 hPa | - | - | - | - |
| 1787705676 | 28.33° C | 40% | 1020.2 hPa | - | - | - | - |
| 1787705076 | 28.33° C | 40% | 1020.3 hPa | - | - | - | - |
| 1787704705 | 28.89° C | 40% | 1020.2 hPa | - | - | - | - |
| 1787704584 | 28.33° C | 39% | 1020.1 hPa | - | - | - | - |
| 1787704207 | 32.22° C | 33% | 1020.1 hPa | - | - | - | - |
| 1787703437 | 27.22° C | 43% | 1104.7 hPa | - | - | - | - |
| 1787702837 | 27.22° C | 43% | 1104.7 hPa | - | - | - | - |
| 1787702237 | 27.22° C | 43% | 1104.6 hPa | - | - | - | - |
* Rain since midnight (hover to see other rain measurements)
** Current wind speed in m/s (hover to see current wind gust speed)